TAM455 SBPA-SBGL
Flight info
| Callsign | TAM455 |
|---|---|
| Flight time | 1h 29m |
| Altitude | 37000 |
| Route | UBNUT UN857 AKNUB |
| Aircraft | A20N/M-SDE2E3FGHIRWXY/LB1 |
Departure
| Time | 2026-04-28 12:15 |
|---|---|
| Airport | Porto Alegre-Salgado Filho International Airport (SBPA) |
Arrival
| Time | 2026-04-28 13:44 |
|---|---|
| Airport | Rio Galeão – Tom Jobim International Airport (SBGL) |
| Time | Latitude | Longitude | Altitude | Speed | Heading |
|---|---|---|---|---|---|
| 2026-04-28 11:54 | -29.99134 | -51.17524 | 20 ft | 0 kts | 0° |
| 2026-04-28 12:06 | -29.99143 | -51.17525 | 20 ft | 4 kts | 355° |
| 2026-04-28 12:06 | -29.99168 | -51.17517 | 21 ft | 4 kts | 317° |
| 2026-04-28 12:07 | -29.99180 | -51.17495 | 22 ft | 2 kts | 271° |
| 2026-04-28 12:07 | -29.99180 | -51.17489 | 22 ft | 0 kts | 271° |
| 2026-04-28 12:10 | -29.99180 | -51.17517 | 20 ft | 10 kts | 269° |
| 2026-04-28 12:10 | -29.99174 | -51.17615 | 21 ft | 10 kts | 278° |
| 2026-04-28 12:11 | -29.99187 | -51.17684 | 20 ft | 10 kts | 222° |
| 2026-04-28 12:11 | -29.99256 | -51.17699 | 20 ft | 6 kts | 187° |
| 2026-04-28 12:11 | -29.99291 | -51.17733 | 22 ft | 7 kts | 253° |
| 2026-04-28 12:11 | -29.99290 | -51.17800 | 20 ft | 9 kts | 279° |
| 2026-04-28 12:12 | -29.99283 | -51.17882 | 20 ft | 12 kts | 272° |
| 2026-04-28 12:12 | -29.99283 | -51.17984 | 19 ft | 14 kts | 268° |
| 2026-04-28 12:12 | -29.99306 | -51.18068 | 22 ft | 11 kts | 246° |
| 2026-04-28 12:12 | -29.99331 | -51.18136 | 19 ft | 0 kts | 248° |
| 2026-04-28 12:13 | -29.99334 | -51.18145 | 19 ft | 4 kts | 248° |
| 2026-04-28 12:13 | -29.99360 | -51.18217 | 19 ft | 12 kts | 243° |
| 2026-04-28 12:13 | -29.99414 | -51.18267 | 20 ft | 7 kts | 183° |
| 2026-04-28 12:14 | -29.99440 | -51.18220 | 20 ft | 7 kts | 93° |
| 2026-04-28 12:14 | -29.99440 | -51.18217 | 20 ft | 0 kts | 92° |
| 2026-04-28 12:14 | -29.99442 | -51.18135 | 21 ft | 42 kts | 91° |
| 2026-04-28 12:14 | -29.99454 | -51.17472 | 19 ft | 120 kts | 91° |
| 2026-04-28 12:15 | -29.99479 | -51.16285 | 75 ft | 171 kts | 91° |
| 2026-04-28 12:15 | -29.99513 | -51.14900 | 826 ft | 171 kts | 91° |
| 2026-04-28 12:15 | -29.99547 | -51.13535 | 1729 ft | 170 kts | 91° |
| 2026-04-28 12:15 | -29.99577 | -51.12131 | 2280 ft | 187 kts | 91° |
| 2026-04-28 12:16 | -29.99606 | -51.10560 | 2735 ft | 206 kts | 90° |
| 2026-04-28 12:16 | -29.99633 | -51.08820 | 3144 ft | 229 kts | 90° |
| 2026-04-28 12:16 | -29.99661 | -51.06888 | 3617 ft | 252 kts | 90° |
| 2026-04-28 12:16 | -29.99692 | -51.04780 | 4085 ft | 273 kts | 90° |
| 2026-04-28 12:17 | -29.99729 | -51.02549 | 4848 ft | 283 kts | 90° |
| 2026-04-28 12:17 | -29.99769 | -51.00250 | 5679 ft | 289 kts | 91° |
| 2026-04-28 12:17 | -29.99810 | -50.97906 | 6539 ft | 295 kts | 89° |
| 2026-04-28 12:17 | -29.99449 | -50.95608 | 7280 ft | 299 kts | 64° |
| 2026-04-28 12:18 | -29.98285 | -50.93656 | 8042 ft | 296 kts | 38° |
| 2026-04-28 12:18 | -29.96634 | -50.92240 | 8835 ft | 297 kts | 27° |
| 2026-04-28 12:18 | -29.94847 | -50.91006 | 9388 ft | 304 kts | 25° |
| 2026-04-28 12:18 | -29.93035 | -50.89769 | 9498 ft | 301 kts | 25° |
| 2026-04-28 12:19 | -29.91248 | -50.88496 | 9614 ft | 303 kts | 26° |
| 2026-04-28 12:19 | -29.89472 | -50.87180 | 9718 ft | 304 kts | 27° |
| 2026-04-28 12:19 | -29.87707 | -50.85838 | 9829 ft | 305 kts | 28° |
| 2026-04-28 12:19 | -29.85940 | -50.84483 | 9940 ft | 306 kts | 28° |
| 2026-04-28 12:20 | -29.84169 | -50.83121 | 10013 ft | 307 kts | 28° |
| 2026-04-28 12:20 | -29.82417 | -50.81773 | 10014 ft | 307 kts | 28° |
| 2026-04-28 12:20 | -29.80644 | -50.80409 | 10012 ft | 306 kts | 28° |
| 2026-04-28 12:20 | -29.78874 | -50.79048 | 10026 ft | 307 kts | 28° |
| 2026-04-28 12:21 | -29.77098 | -50.77673 | 10294 ft | 310 kts | 28° |
| 2026-04-28 12:21 | -29.75247 | -50.76243 | 10560 ft | 331 kts | 28° |
| 2026-04-28 12:21 | -29.73270 | -50.74727 | 10864 ft | 351 kts | 28° |
| 2026-04-28 12:21 | -29.71217 | -50.73143 | 11557 ft | 356 kts | 29° |
| 2026-04-28 12:22 | -29.69158 | -50.71548 | 12366 ft | 358 kts | 29° |
| 2026-04-28 12:22 | -29.67109 | -50.69962 | 13137 ft | 361 kts | 28° |
| 2026-04-28 12:22 | -29.65014 | -50.68344 | 13917 ft | 364 kts | 28° |
| 2026-04-28 12:22 | -29.62902 | -50.66713 | 14578 ft | 368 kts | 28° |
| 2026-04-28 12:23 | -29.60762 | -50.65061 | 15197 ft | 372 kts | 28° |
| 2026-04-28 12:23 | -29.58605 | -50.63397 | 15819 ft | 376 kts | 28° |
| 2026-04-28 12:23 | -29.56421 | -50.61718 | 16468 ft | 379 kts | 28° |
| 2026-04-28 12:23 | -29.54212 | -50.60030 | 17068 ft | 383 kts | 28° |
| 2026-04-28 12:24 | -29.52740 | -50.58903 | 17456 ft | 386 kts | 28° |
| 2026-04-28 12:24 | -29.49728 | -50.56587 | 18272 ft | 392 kts | 28° |
| 2026-04-28 12:24 | -29.48238 | -50.55409 | 18653 ft | 396 kts | 32° |
| 2026-04-28 12:24 | -29.45419 | -50.52679 | 19403 ft | 402 kts | 36° |
| 2026-04-28 12:25 | -29.43298 | -50.50561 | 19925 ft | 406 kts | 36° |
| 2026-04-28 12:25 | -29.41160 | -50.48434 | 20495 ft | 408 kts | 36° |
| 2026-04-28 12:25 | -29.39005 | -50.46298 | 21038 ft | 411 kts | 36° |
| 2026-04-28 12:25 | -29.36829 | -50.44143 | 21568 ft | 415 kts | 36° |
| 2026-04-28 12:26 | -29.35383 | -50.42712 | 21916 ft | 417 kts | 36° |
| 2026-04-28 12:26 | -29.33181 | -50.40533 | 22448 ft | 419 kts | 36° |
| 2026-04-28 12:26 | -29.30964 | -50.38341 | 22945 ft | 423 kts | 36° |
| 2026-04-28 12:26 | -29.28725 | -50.36130 | 23454 ft | 426 kts | 36° |
| 2026-04-28 12:27 | -29.26387 | -50.34064 | 23931 ft | 426 kts | 32° |
| 2026-04-28 12:27 | -29.23212 | -50.31358 | 24432 ft | 432 kts | 31° |
| 2026-04-28 12:27 | -29.20797 | -50.29295 | 24834 ft | 435 kts | 31° |
| 2026-04-28 12:27 | -29.19158 | -50.27894 | 25077 ft | 437 kts | 30° |
| 2026-04-28 12:28 | -29.16744 | -50.25831 | 25457 ft | 441 kts | 30° |
| 2026-04-28 12:28 | -29.13442 | -50.23011 | 25957 ft | 445 kts | 30° |
| 2026-04-28 12:28 | -29.11793 | -50.21604 | 26214 ft | 447 kts | 29° |
| 2026-04-28 12:28 | -29.09293 | -50.19473 | 26572 ft | 450 kts | 29° |
| 2026-04-28 12:29 | -29.04240 | -50.15167 | 27268 ft | 456 kts | 28° |
| 2026-04-28 12:29 | -29.01688 | -50.12996 | 27608 ft | 459 kts | 27° |
| 2026-04-28 12:29 | -28.99119 | -50.10815 | 27921 ft | 462 kts | 27° |
| 2026-04-28 12:30 | -28.96566 | -50.08647 | 28254 ft | 464 kts | 27° |
| 2026-04-28 12:30 | -28.93968 | -50.06439 | 28577 ft | 467 kts | 27° |
| 2026-04-28 12:30 | -28.91351 | -50.04218 | 28865 ft | 470 kts | 26° |
| 2026-04-28 12:30 | -28.88720 | -50.01989 | 29150 ft | 472 kts | 26° |
| 2026-04-28 12:31 | -28.86077 | -49.99753 | 29395 ft | 475 kts | 26° |
| 2026-04-28 12:31 | -28.83410 | -49.97492 | 29692 ft | 478 kts | 26° |
| 2026-04-28 12:31 | -28.80744 | -49.95240 | 29919 ft | 476 kts | 25° |
| 2026-04-28 12:31 | -28.78071 | -49.92978 | 30076 ft | 480 kts | 26° |
| 2026-04-28 12:32 | -28.75406 | -49.90738 | 30228 ft | 484 kts | 26° |
| 2026-04-28 12:32 | -28.72697 | -49.88468 | 30479 ft | 488 kts | 28° |
| 2026-04-28 12:32 | -28.70169 | -49.85798 | 30772 ft | 504 kts | 37° |
| 2026-04-28 12:32 | -28.67954 | -49.82637 | 30990 ft | 519 kts | 46° |
| 2026-04-28 12:33 | -28.66078 | -49.79070 | 31207 ft | 527 kts | 52° |
| 2026-04-28 12:33 | -28.64282 | -49.75424 | 31424 ft | 528 kts | 51° |
| 2026-04-28 12:33 | -28.62464 | -49.71802 | 31701 ft | 527 kts | 51° |
| 2026-04-28 12:33 | -28.60665 | -49.68221 | 32052 ft | 526 kts | 51° |
| 2026-04-28 12:34 | -28.58827 | -49.64560 | 32410 ft | 526 kts | 51° |
| 2026-04-28 12:34 | -28.57040 | -49.61019 | 32639 ft | 523 kts | 51° |
| 2026-04-28 12:34 | -28.55214 | -49.57431 | 32697 ft | 525 kts | 51° |
| 2026-04-28 12:34 | -28.53392 | -49.53833 | 33058 ft | 524 kts | 51° |
| 2026-04-28 12:35 | -28.51577 | -49.50227 | 33277 ft | 525 kts | 51° |
| 2026-04-28 12:35 | -28.49760 | -49.46621 | 33568 ft | 525 kts | 51° |
| 2026-04-28 12:35 | -28.47944 | -49.43027 | 33884 ft | 524 kts | 51° |
| 2026-04-28 12:35 | -28.46127 | -49.39438 | 34180 ft | 523 kts | 50° |
| 2026-04-28 12:36 | -28.44308 | -49.35854 | 34415 ft | 523 kts | 50° |
| 2026-04-28 12:36 | -28.42491 | -49.32279 | 34626 ft | 524 kts | 50° |
| 2026-04-28 12:36 | -28.40669 | -49.28698 | 34823 ft | 524 kts | 50° |
| 2026-04-28 12:36 | -28.38866 | -49.25160 | 35014 ft | 525 kts | 51° |
| 2026-04-28 12:37 | -28.37042 | -49.21577 | 35208 ft | 524 kts | 51° |
| 2026-04-28 12:37 | -28.35214 | -49.17990 | 35420 ft | 524 kts | 51° |
| 2026-04-28 12:37 | -28.33386 | -49.14410 | 35619 ft | 524 kts | 51° |
| 2026-04-28 12:37 | -28.31555 | -49.10827 | 35823 ft | 525 kts | 50° |
| 2026-04-28 12:38 | -28.29725 | -49.07248 | 36033 ft | 524 kts | 51° |
| 2026-04-28 12:38 | -28.27794 | -49.03777 | 36221 ft | 515 kts | 44° |
| 2026-04-28 12:38 | -28.25572 | -49.00650 | 36383 ft | 504 kts | 36° |
| 2026-04-28 12:38 | -28.23238 | -48.97749 | 36532 ft | 504 kts | 37° |
| 2026-04-28 12:39 | -28.20885 | -48.94810 | 36710 ft | 504 kts | 37° |
| 2026-04-28 12:39 | -28.18529 | -48.91865 | 36890 ft | 504 kts | 37° |
| 2026-04-28 12:39 | -28.16176 | -48.88919 | 37055 ft | 504 kts | 37° |
| 2026-04-28 12:39 | -28.13823 | -48.85975 | 37168 ft | 502 kts | 37° |
| 2026-04-28 12:40 | -28.11482 | -48.83044 | 37182 ft | 502 kts | 37° |
| 2026-04-28 12:40 | -28.06794 | -48.77168 | 37177 ft | 503 kts | 37° |
| 2026-04-28 12:41 | -28.02121 | -48.71334 | 37183 ft | 504 kts | 37° |
| 2026-04-28 12:41 | -27.97494 | -48.65582 | 37178 ft | 503 kts | 36° |
| 2026-04-28 12:42 | -27.92795 | -48.59744 | 37166 ft | 501 kts | 37° |
| 2026-04-28 12:42 | -27.88124 | -48.53936 | 37164 ft | 498 kts | 37° |
| 2026-04-28 12:43 | -27.83452 | -48.48137 | 37161 ft | 499 kts | 37° |
| 2026-04-28 12:43 | -27.78812 | -48.42386 | 37152 ft | 498 kts | 37° |
| 2026-04-28 12:44 | -27.74156 | -48.36622 | 37156 ft | 496 kts | 37° |
| 2026-04-28 12:44 | -27.69497 | -48.30864 | 37156 ft | 496 kts | 37° |
| 2026-04-28 12:45 | -27.64844 | -48.25121 | 37160 ft | 496 kts | 37° |
| 2026-04-28 12:45 | -27.60220 | -48.19421 | 37171 ft | 495 kts | 37° |
| 2026-04-28 12:46 | -27.55565 | -48.13690 | 37166 ft | 495 kts | 37° |
| 2026-04-28 12:46 | -27.50914 | -48.07973 | 37145 ft | 495 kts | 37° |
| 2026-04-28 12:47 | -27.46268 | -48.02269 | 37172 ft | 494 kts | 37° |
| 2026-04-28 12:47 | -27.41663 | -47.96621 | 37163 ft | 491 kts | 37° |
| 2026-04-28 12:48 | -27.37038 | -47.90965 | 37163 ft | 492 kts | 37° |
| 2026-04-28 12:48 | -27.32386 | -47.85330 | 37160 ft | 491 kts | 37° |
| 2026-04-28 12:49 | -27.27733 | -47.79700 | 37146 ft | 491 kts | 37° |
| 2026-04-28 12:49 | -27.23120 | -47.74121 | 37153 ft | 490 kts | 37° |
| 2026-04-28 12:50 | -27.18479 | -47.68515 | 37148 ft | 489 kts | 37° |
| 2026-04-28 12:50 | -27.13850 | -47.62931 | 37145 ft | 489 kts | 37° |
| 2026-04-28 12:51 | -27.09218 | -47.57351 | 37144 ft | 487 kts | 38° |
| 2026-04-28 12:51 | -27.04628 | -47.51829 | 37135 ft | 487 kts | 38° |
| 2026-04-28 12:52 | -27.00009 | -47.46279 | 37136 ft | 487 kts | 38° |
| 2026-04-28 12:52 | -26.95385 | -47.40730 | 37139 ft | 487 kts | 38° |
| 2026-04-28 12:53 | -26.90755 | -47.35181 | 37134 ft | 487 kts | 38° |
| 2026-04-28 12:53 | -26.86120 | -47.29634 | 37137 ft | 488 kts | 38° |
| 2026-04-28 12:54 | -26.81512 | -47.24128 | 37140 ft | 488 kts | 38° |
| 2026-04-28 12:54 | -26.76862 | -47.18580 | 37141 ft | 489 kts | 38° |
| 2026-04-28 12:55 | -26.72204 | -47.13029 | 37138 ft | 490 kts | 38° |
| 2026-04-28 12:55 | -26.67533 | -47.07482 | 37143 ft | 490 kts | 38° |
| 2026-04-28 12:56 | -26.62881 | -47.01970 | 37147 ft | 491 kts | 38° |
| 2026-04-28 12:56 | -26.58188 | -46.96417 | 37134 ft | 491 kts | 38° |
| 2026-04-28 12:57 | -26.53503 | -46.90906 | 37132 ft | 489 kts | 38° |
| 2026-04-28 12:57 | -26.48814 | -46.85402 | 37133 ft | 489 kts | 38° |
| 2026-04-28 12:58 | -26.44155 | -46.79937 | 37133 ft | 489 kts | 38° |
| 2026-04-28 12:58 | -26.39467 | -46.74443 | 37136 ft | 489 kts | 38° |
| 2026-04-28 12:59 | -26.34779 | -46.68957 | 37145 ft | 489 kts | 38° |
| 2026-04-28 12:59 | -26.30084 | -46.63469 | 37141 ft | 489 kts | 38° |
| 2026-04-28 13:00 | -26.25388 | -46.57986 | 37138 ft | 489 kts | 38° |
| 2026-04-28 13:00 | -26.20728 | -46.52552 | 37144 ft | 488 kts | 38° |
| 2026-04-28 13:01 | -26.16039 | -46.47090 | 37143 ft | 488 kts | 38° |
| 2026-04-28 13:01 | -26.11355 | -46.41642 | 37136 ft | 487 kts | 38° |
| 2026-04-28 13:02 | -26.06665 | -46.36193 | 37124 ft | 487 kts | 38° |
| 2026-04-28 13:02 | -26.02005 | -46.30786 | 37134 ft | 487 kts | 38° |
| 2026-04-28 13:03 | -25.97314 | -46.25350 | 37127 ft | 487 kts | 38° |
| 2026-04-28 13:03 | -25.92628 | -46.19927 | 37126 ft | 487 kts | 38° |
| 2026-04-28 13:04 | -25.87936 | -46.14502 | 37129 ft | 487 kts | 38° |
| 2026-04-28 13:04 | -25.83280 | -46.09126 | 37127 ft | 487 kts | 38° |
| 2026-04-28 13:05 | -25.78583 | -46.03710 | 37127 ft | 487 kts | 38° |
| 2026-04-28 13:05 | -25.73883 | -45.98296 | 37129 ft | 487 kts | 38° |
| 2026-04-28 13:06 | -25.69191 | -45.92899 | 37130 ft | 486 kts | 38° |
| 2026-04-28 13:06 | -25.64525 | -45.87538 | 37134 ft | 487 kts | 38° |
| 2026-04-28 13:07 | -25.59813 | -45.82134 | 37134 ft | 487 kts | 38° |
| 2026-04-28 13:07 | -25.55106 | -45.76740 | 37116 ft | 487 kts | 38° |
| 2026-04-28 13:08 | -25.50407 | -45.71362 | 37133 ft | 484 kts | 38° |
| 2026-04-28 13:08 | -25.45735 | -45.66020 | 37130 ft | 483 kts | 38° |
| 2026-04-28 13:09 | -25.41085 | -45.60713 | 37133 ft | 483 kts | 38° |
| 2026-04-28 13:09 | -25.36411 | -45.55384 | 37127 ft | 481 kts | 38° |
| 2026-04-28 13:10 | -25.31751 | -45.50076 | 37128 ft | 482 kts | 38° |
| 2026-04-28 13:10 | -25.27084 | -45.44767 | 37122 ft | 480 kts | 38° |
| 2026-04-28 13:11 | -25.22451 | -45.39503 | 37122 ft | 482 kts | 38° |
| 2026-04-28 13:11 | -25.17787 | -45.34211 | 37120 ft | 480 kts | 38° |
| 2026-04-28 13:12 | -25.13133 | -45.28932 | 37114 ft | 479 kts | 38° |
| 2026-04-28 13:12 | -25.08481 | -45.23665 | 37107 ft | 479 kts | 38° |
| 2026-04-28 13:13 | -25.03833 | -45.18409 | 37083 ft | 478 kts | 39° |
| 2026-04-28 13:13 | -24.99187 | -45.13160 | 37092 ft | 478 kts | 39° |
| 2026-04-28 13:14 | -24.94577 | -45.07958 | 37092 ft | 478 kts | 39° |
| 2026-04-28 13:14 | -24.89922 | -45.02712 | 37097 ft | 478 kts | 39° |
| 2026-04-28 13:15 | -24.85273 | -44.97479 | 37094 ft | 479 kts | 38° |
| 2026-04-28 13:15 | -24.80613 | -44.92238 | 37098 ft | 479 kts | 39° |
| 2026-04-28 13:16 | -24.75959 | -44.87023 | 37119 ft | 483 kts | 39° |
| 2026-04-28 13:16 | -24.71263 | -44.81745 | 37062 ft | 482 kts | 39° |
| 2026-04-28 13:16 | -24.68919 | -44.79114 | 36816 ft | 480 kts | 39° |
| 2026-04-28 13:17 | -24.66593 | -44.76506 | 36570 ft | 478 kts | 39° |
| 2026-04-28 13:17 | -24.64263 | -44.73897 | 36309 ft | 478 kts | 39° |
| 2026-04-28 13:17 | -24.61932 | -44.71290 | 36066 ft | 478 kts | 39° |
| 2026-04-28 13:17 | -24.59600 | -44.68683 | 35826 ft | 478 kts | 39° |
| 2026-04-28 13:18 | -24.57270 | -44.66079 | 35589 ft | 478 kts | 39° |
| 2026-04-28 13:18 | -24.54928 | -44.63572 | 35345 ft | 473 kts | 32° |
| 2026-04-28 13:18 | -24.52254 | -44.61558 | 35113 ft | 461 kts | 21° |
| 2026-04-28 13:18 | -24.49438 | -44.59868 | 34888 ft | 461 kts | 21° |
| 2026-04-28 13:19 | -24.46623 | -44.58179 | 34679 ft | 461 kts | 22° |
| 2026-04-28 13:19 | -24.43808 | -44.56486 | 34475 ft | 461 kts | 22° |
| 2026-04-28 13:19 | -24.40996 | -44.54791 | 34278 ft | 461 kts | 22° |
| 2026-04-28 13:19 | -24.38185 | -44.53096 | 34079 ft | 461 kts | 22° |
| 2026-04-28 13:20 | -24.35411 | -44.51424 | 33865 ft | 461 kts | 22° |
| 2026-04-28 13:20 | -24.32602 | -44.49731 | 33654 ft | 462 kts | 22° |
| 2026-04-28 13:20 | -24.29781 | -44.48032 | 33431 ft | 462 kts | 22° |
| 2026-04-28 13:20 | -24.26962 | -44.46335 | 33234 ft | 462 kts | 22° |
| 2026-04-28 13:21 | -24.24140 | -44.44637 | 33057 ft | 463 kts | 22° |
| 2026-04-28 13:21 | -24.21322 | -44.42942 | 32893 ft | 462 kts | 22° |
| 2026-04-28 13:21 | -24.18501 | -44.41246 | 32725 ft | 463 kts | 22° |
| 2026-04-28 13:21 | -24.15676 | -44.39548 | 32554 ft | 463 kts | 22° |
| 2026-04-28 13:22 | -24.12858 | -44.37855 | 32283 ft | 461 kts | 22° |
| 2026-04-28 13:22 | -24.10090 | -44.36192 | 31764 ft | 459 kts | 22° |
| 2026-04-28 13:22 | -24.07269 | -44.34499 | 30912 ft | 456 kts | 22° |
| 2026-04-28 13:22 | -24.04524 | -44.32853 | 29934 ft | 455 kts | 22° |
| 2026-04-28 13:23 | -24.01762 | -44.31196 | 29007 ft | 450 kts | 22° |
| 2026-04-28 13:23 | -23.99054 | -44.29571 | 28729 ft | 439 kts | 22° |
| 2026-04-28 13:23 | -23.96356 | -44.27957 | 28623 ft | 447 kts | 22° |
| 2026-04-28 13:23 | -23.93625 | -44.26305 | 28491 ft | 450 kts | 26° |
| 2026-04-28 13:24 | -23.91108 | -44.24228 | 28383 ft | 458 kts | 38° |
| 2026-04-28 13:24 | -23.88996 | -44.21586 | 28272 ft | 466 kts | 50° |
| 2026-04-28 13:24 | -23.87382 | -44.18486 | 28178 ft | 473 kts | 59° |
| 2026-04-28 13:25 | -23.84611 | -44.12197 | 28026 ft | 472 kts | 59° |
| 2026-04-28 13:25 | -23.82954 | -44.09138 | 27930 ft | 464 kts | 47° |
| 2026-04-28 13:25 | -23.80811 | -44.06588 | 27847 ft | 453 kts | 34° |
| 2026-04-28 13:25 | -23.78263 | -44.04627 | 27702 ft | 441 kts | 22° |
| 2026-04-28 13:26 | -23.75457 | -44.03366 | 27569 ft | 433 kts | 9° |
| 2026-04-28 13:26 | -23.72522 | -44.02842 | 27448 ft | 425 kts | 357° |
| 2026-04-28 13:26 | -23.69560 | -44.02749 | 27405 ft | 425 kts | 356° |
| 2026-04-28 13:26 | -23.66667 | -44.02667 | 27132 ft | 418 kts | 357° |
| 2026-04-28 13:27 | -23.63768 | -44.02549 | 26434 ft | 416 kts | 357° |
| 2026-04-28 13:27 | -23.60886 | -44.02399 | 25671 ft | 414 kts | 358° |
| 2026-04-28 13:27 | -23.58014 | -44.02228 | 25126 ft | 412 kts | 358° |
| 2026-04-28 13:27 | -23.55162 | -44.02048 | 24595 ft | 409 kts | 358° |
| 2026-04-28 13:28 | -23.52325 | -44.01866 | 23901 ft | 410 kts | 358° |
| 2026-04-28 13:28 | -23.49448 | -44.01684 | 22771 ft | 420 kts | 359° |
| 2026-04-28 13:28 | -23.46553 | -44.01499 | 22118 ft | 409 kts | 359° |
| 2026-04-28 13:28 | -23.43764 | -44.01317 | 21543 ft | 396 kts | 359° |
| 2026-04-28 13:29 | -23.41016 | -44.01142 | 20532 ft | 399 kts | 359° |
| 2026-04-28 13:29 | -23.38251 | -44.00973 | 19653 ft | 405 kts | 359° |
| 2026-04-28 13:29 | -23.35443 | -44.00799 | 19064 ft | 402 kts | 359° |
| 2026-04-28 13:29 | -23.32663 | -44.00624 | 18504 ft | 398 kts | 360° |
| 2026-04-28 13:30 | -23.29909 | -44.00450 | 17866 ft | 395 kts | 0° |
| 2026-04-28 13:30 | -23.27175 | -44.00278 | 17197 ft | 392 kts | 0° |
| 2026-04-28 13:30 | -23.24460 | -44.00108 | 16552 ft | 390 kts | 0° |
| 2026-04-28 13:30 | -23.21761 | -43.99938 | 15911 ft | 387 kts | 0° |
| 2026-04-28 13:31 | -23.16443 | -43.99605 | 14685 ft | 383 kts | 1° |
| 2026-04-28 13:31 | -23.13790 | -43.99439 | 14106 ft | 381 kts | 1° |
| 2026-04-28 13:31 | -23.11150 | -43.99273 | 13486 ft | 379 kts | 1° |
| 2026-04-28 13:32 | -23.08538 | -43.99110 | 12938 ft | 374 kts | 2° |
| 2026-04-28 13:32 | -23.05950 | -43.98947 | 12462 ft | 369 kts | 2° |
| 2026-04-28 13:32 | -23.03443 | -43.98788 | 12347 ft | 353 kts | 2° |
| 2026-04-28 13:32 | -23.01038 | -43.98635 | 12239 ft | 344 kts | 2° |
| 2026-04-28 13:33 | -22.98627 | -43.98484 | 12145 ft | 349 kts | 2° |
| 2026-04-28 13:33 | -22.96242 | -43.98325 | 12096 ft | 347 kts | 5° |
| 2026-04-28 13:33 | -22.93923 | -43.97624 | 11911 ft | 349 kts | 25° |
| 2026-04-28 13:33 | -22.91942 | -43.96086 | 11354 ft | 355 kts | 44° |
| 2026-04-28 13:34 | -22.90521 | -43.93872 | 10731 ft | 360 kts | 62° |
| 2026-04-28 13:34 | -22.89517 | -43.91438 | 10563 ft | 346 kts | 66° |
| 2026-04-28 13:34 | -22.88621 | -43.89079 | 10426 ft | 331 kts | 66° |
| 2026-04-28 13:34 | -22.87741 | -43.86843 | 10261 ft | 313 kts | 64° |
| 2026-04-28 13:35 | -22.86861 | -43.84729 | 9955 ft | 304 kts | 63° |
| 2026-04-28 13:35 | -22.85968 | -43.82669 | 9593 ft | 300 kts | 63° |
| 2026-04-28 13:35 | -22.85071 | -43.80644 | 9293 ft | 295 kts | 63° |
| 2026-04-28 13:35 | -22.84197 | -43.78688 | 9208 ft | 293 kts | 63° |
| 2026-04-28 13:36 | -22.83304 | -43.76691 | 9123 ft | 295 kts | 63° |
| 2026-04-28 13:36 | -22.82411 | -43.74699 | 9083 ft | 291 kts | 63° |
| 2026-04-28 13:36 | -22.81529 | -43.72726 | 9079 ft | 291 kts | 64° |
| 2026-04-28 13:36 | -22.80826 | -43.70665 | 9017 ft | 292 kts | 74° |
| 2026-04-28 13:37 | -22.80336 | -43.68523 | 8677 ft | 294 kts | 75° |
| 2026-04-28 13:37 | -22.79841 | -43.66364 | 8268 ft | 295 kts | 75° |
| 2026-04-28 13:37 | -22.79343 | -43.64213 | 7888 ft | 294 kts | 74° |
| 2026-04-28 13:37 | -22.78845 | -43.62069 | 7535 ft | 292 kts | 74° |
| 2026-04-28 13:38 | -22.78357 | -43.59976 | 7186 ft | 290 kts | 74° |
| 2026-04-28 13:38 | -22.77692 | -43.57940 | 6820 ft | 285 kts | 57° |
| 2026-04-28 13:38 | -22.76423 | -43.56365 | 6659 ft | 273 kts | 36° |
| 2026-04-28 13:38 | -22.74745 | -43.55405 | 6579 ft | 275 kts | 15° |
| 2026-04-28 13:39 | -22.72914 | -43.54812 | 6503 ft | 274 kts | 17° |
| 2026-04-28 13:39 | -22.71130 | -43.54108 | 6498 ft | 273 kts | 21° |
| 2026-04-28 13:39 | -22.69418 | -43.53196 | 6499 ft | 275 kts | 35° |
| 2026-04-28 13:39 | -22.68122 | -43.51670 | 6500 ft | 279 kts | 58° |
| 2026-04-28 13:40 | -22.67477 | -43.49741 | 6497 ft | 269 kts | 81° |
| 2026-04-28 13:40 | -22.67525 | -43.47779 | 6493 ft | 255 kts | 101° |
| 2026-04-28 13:40 | -22.68154 | -43.46052 | 6501 ft | 252 kts | 121° |
| 2026-04-28 13:40 | -22.69189 | -43.44490 | 6491 ft | 255 kts | 126° |
| 2026-04-28 13:41 | -22.70236 | -43.42952 | 6490 ft | 253 kts | 125° |
| 2026-04-28 13:41 | -22.71317 | -43.41430 | 6236 ft | 256 kts | 129° |
| 2026-04-28 13:41 | -22.72506 | -43.40013 | 5926 ft | 252 kts | 133° |
| 2026-04-28 13:41 | -22.73683 | -43.38651 | 5728 ft | 243 kts | 131° |
| 2026-04-28 13:42 | -22.74735 | -43.37286 | 5509 ft | 227 kts | 124° |
| 2026-04-28 13:42 | -22.75522 | -43.35851 | 5098 ft | 218 kts | 113° |
| 2026-04-28 13:42 | -22.76017 | -43.34370 | 4709 ft | 204 kts | 104° |
| 2026-04-28 13:42 | -22.76419 | -43.32892 | 3951 ft | 209 kts | 110° |
| 2026-04-28 13:43 | -22.77087 | -43.31511 | 3186 ft | 205 kts | 124° |
| 2026-04-28 13:43 | -22.78037 | -43.30375 | 2354 ft | 203 kts | 137° |
| 2026-04-28 13:43 | -22.79052 | -43.29390 | 1675 ft | 189 kts | 135° |
| 2026-04-28 13:43 | -22.79881 | -43.28334 | 1023 ft | 180 kts | 126° |
| 2026-04-28 13:44 | -22.80611 | -43.27237 | 409 ft | 174 kts | 127° |
| 2026-04-28 13:44 | -22.81311 | -43.26257 | 99 ft | 155 kts | 125° |
| 2026-04-28 13:44 | -22.81885 | -43.25398 | 26 ft | 114 kts | 125° |
| 2026-04-28 13:44 | -22.82168 | -43.24974 | 23 ft | 30 kts | 127° |
| 2026-04-28 13:45 | -22.82288 | -43.24792 | 20 ft | 23 kts | 122° |
| 2026-04-28 13:45 | -22.82341 | -43.24661 | 20 ft | 16 kts | 105° |
| 2026-04-28 13:45 | -22.82360 | -43.24556 | 19 ft | 15 kts | 96° |
| 2026-04-28 13:45 | -22.82366 | -43.24483 | 18 ft | 7 kts | 95° |
| 2026-04-28 13:46 | -22.82349 | -43.24438 | 20 ft | 7 kts | 47° |
| 2026-04-28 13:46 | -22.82282 | -43.24383 | 19 ft | 14 kts | 34° |
| 2026-04-28 13:46 | -22.82216 | -43.24329 | 22 ft | 10 kts | 37° |
| 2026-04-28 13:46 | -22.82150 | -43.24296 | 21 ft | 11 kts | 357° |
| 2026-04-28 13:47 | -22.82090 | -43.24359 | 21 ft | 14 kts | 306° |
| 2026-04-28 13:47 | -22.82031 | -43.24448 | 21 ft | 13 kts | 304° |
| 2026-04-28 13:47 | -22.81977 | -43.24529 | 21 ft | 11 kts | 305° |
| 2026-04-28 13:47 | -22.81933 | -43.24594 | 21 ft | 10 kts | 315° |
| 2026-04-28 13:48 | -22.81846 | -43.24584 | 21 ft | 18 kts | 27° |
| 2026-04-28 13:48 | -22.81761 | -43.24515 | 23 ft | 15 kts | 37° |
| 2026-04-28 13:48 | -22.81702 | -43.24483 | 21 ft | 9 kts | 3° |
| 2026-04-28 13:48 | -22.81637 | -43.24500 | 21 ft | 9 kts | 345° |
| 2026-04-28 13:49 | -22.81597 | -43.24511 | 21 ft | 0 kts | 346° |